createdAt,value
2022-10-25T00:02:32.389Z,1003.98
2022-10-25T00:05:39.929Z,1003.99
2022-10-25T00:08:47.795Z,1004.06
2022-10-25T00:11:54.887Z,1004.06
2022-10-25T00:15:02.452Z,1004.09
2022-10-25T00:18:09.885Z,1004.12
2022-10-25T00:21:16.662Z,1004.12
2022-10-25T00:24:24.097Z,1004.20
2022-10-25T00:27:31.207Z,1004.17
2022-10-25T00:30:38.398Z,1004.17
2022-10-25T00:33:45.887Z,1004.19
2022-10-25T00:36:52.909Z,1004.19
2022-10-25T00:40:00.170Z,1004.18
2022-10-25T00:43:07.593Z,1004.12
2022-10-25T00:46:12.644Z,1004.09
2022-10-25T00:49:19.551Z,1004.11
2022-10-25T00:52:26.495Z,1004.23
2022-10-25T00:55:33.776Z,1004.27
2022-10-25T00:58:40.686Z,1004.20
2022-10-25T01:01:47.787Z,1004.21
2022-10-25T01:04:55.138Z,1004.22
2022-10-25T01:08:02.117Z,1004.22
2022-10-25T01:11:09.024Z,1004.20
2022-10-25T01:14:16.179Z,1004.22
2022-10-25T01:17:22.849Z,1004.26
2022-10-25T01:20:30.290Z,1004.15
2022-10-25T01:23:37.762Z,1004.17
2022-10-25T01:26:44.476Z,1004.16
2022-10-25T01:29:51.813Z,1004.24
2022-10-25T01:32:58.951Z,1004.27
2022-10-25T01:36:05.794Z,1004.27
2022-10-25T01:39:13.317Z,1004.22
2022-10-25T01:42:19.968Z,1004.23
2022-10-25T01:45:27.169Z,1004.31
2022-10-25T01:48:34.550Z,1004.30
2022-10-25T01:51:41.858Z,1004.33
2022-10-25T01:54:48.900Z,1004.31
2022-10-25T01:57:56.410Z,1004.36
2022-10-25T02:01:03.234Z,1004.46
2022-10-25T02:04:09.991Z,1004.43
2022-10-25T02:07:16.992Z,1004.39
2022-10-25T02:10:24.722Z,1004.30
2022-10-25T02:13:31.872Z,1004.39
2022-10-25T02:16:38.816Z,1004.32
2022-10-25T02:19:46.369Z,1004.39
2022-10-25T02:22:53.157Z,1004.40
2022-10-25T02:26:00.427Z,1004.38
2022-10-25T02:29:07.526Z,1004.39
2022-10-25T02:32:15.059Z,1004.41
2022-10-25T02:35:22.239Z,1004.39
2022-10-25T02:38:29.170Z,1004.36
2022-10-25T02:41:36.102Z,1004.44
2022-10-25T02:44:43.522Z,1004.46
2022-10-25T02:47:50.560Z,1004.52
2022-10-25T02:50:57.646Z,1004.69
2022-10-25T02:54:05.153Z,1004.52
2022-10-25T02:57:12.081Z,1004.56
2022-10-25T03:00:18.896Z,1004.60
2022-10-25T03:03:25.796Z,1004.59
2022-10-25T03:06:32.440Z,1004.56
2022-10-25T03:09:39.748Z,1004.50
2022-10-25T03:12:47.107Z,1004.47
2022-10-25T03:15:54.309Z,1004.49
2022-10-25T03:19:01.560Z,1004.51
2022-10-25T03:22:08.502Z,1004.49
2022-10-25T03:25:15.507Z,1004.48
2022-10-25T03:28:22.723Z,1004.57
2022-10-25T03:31:29.338Z,1004.56
2022-10-25T03:34:37.098Z,1004.57
2022-10-25T03:37:44.854Z,1004.62
2022-10-25T03:40:51.715Z,1004.62
2022-10-25T03:43:58.976Z,1004.74
2022-10-25T03:47:06.421Z,1004.71
2022-10-25T03:50:13.148Z,1004.71
2022-10-25T03:53:20.351Z,1004.72
2022-10-25T03:56:27.650Z,1004.74
2022-10-25T03:59:34.790Z,1004.77
2022-10-25T04:02:42.253Z,1004.75
2022-10-25T04:05:49.271Z,1004.74
2022-10-25T04:08:56.302Z,1004.78
2022-10-25T04:12:04.146Z,1004.87
2022-10-25T04:15:11.374Z,1004.85
2022-10-25T04:18:18.613Z,1004.87
2022-10-25T04:21:25.679Z,1004.90
2022-10-25T04:24:32.574Z,1004.84
2022-10-25T04:27:39.986Z,1004.85
2022-10-25T04:30:47.175Z,1004.92
2022-10-25T04:33:54.390Z,1004.92
2022-10-25T04:37:02.110Z,1004.90
2022-10-25T04:40:08.959Z,1004.93
2022-10-25T04:43:16.077Z,1005.00
2022-10-25T04:46:23.104Z,1005.08
2022-10-25T04:49:30.453Z,1005.10
2022-10-25T04:52:37.696Z,1005.06
2022-10-25T04:55:44.511Z,1005.00
2022-10-25T04:58:52.838Z,1005.02
2022-10-25T05:02:00.797Z,1004.99
2022-10-25T05:05:07.407Z,1005.05
2022-10-25T05:08:14.756Z,1005.02
2022-10-25T05:11:21.347Z,1004.96
2022-10-25T05:14:28.987Z,1005.07
2022-10-25T05:17:36.003Z,1005.00
2022-10-25T05:20:43.321Z,1005.08
2022-10-25T05:23:50.792Z,1005.07
2022-10-25T05:26:57.671Z,1005.10
2022-10-25T05:30:04.392Z,1005.11
2022-10-25T05:33:11.593Z,1005.27
2022-10-25T05:36:18.799Z,1005.27
2022-10-25T05:39:25.822Z,1005.22
2022-10-25T05:42:33.346Z,1005.34
2022-10-25T05:45:40.596Z,1005.41
2022-10-25T05:48:49.124Z,1005.35
2022-10-25T05:51:56.627Z,1005.33
2022-10-25T05:55:04.120Z,1005.45
2022-10-25T05:58:11.338Z,1005.41
2022-10-25T06:01:18.562Z,1005.52
2022-10-25T06:04:26.025Z,1005.50
2022-10-25T06:07:33.222Z,1005.57
2022-10-25T06:10:40.083Z,1005.69
2022-10-25T06:13:47.186Z,1005.76
2022-10-25T06:16:54.235Z,1005.77
2022-10-25T06:20:01.233Z,1005.80
2022-10-25T06:23:10.545Z,1005.85
2022-10-25T06:26:17.949Z,1005.92
2022-10-25T06:29:25.121Z,1005.85
2022-10-25T06:32:32.650Z,1005.86
2022-10-25T06:35:39.351Z,1005.95
2022-10-25T06:38:47.017Z,1005.99
2022-10-25T06:41:54.025Z,1006.02
2022-10-25T06:45:00.693Z,1006.03
2022-10-25T06:48:07.909Z,1006.06
2022-10-25T06:51:14.839Z,1006.08
2022-10-25T06:54:21.897Z,1006.20
2022-10-25T06:57:29.258Z,1006.19
2022-10-25T07:00:36.661Z,1006.26
2022-10-25T07:03:43.778Z,1006.27
2022-10-25T07:06:55.132Z,1006.28
2022-10-25T07:09:51.705Z,1006.31
2022-10-25T07:12:59.132Z,1006.29
2022-10-25T07:16:06.260Z,1006.27
2022-10-25T07:19:13.292Z,1006.31
2022-10-25T07:22:20.579Z,1006.29
2022-10-25T07:25:27.451Z,1006.24
2022-10-25T07:28:34.375Z,1006.35
2022-10-25T07:31:41.763Z,1006.39
2022-10-25T07:34:48.924Z,1006.46
2022-10-25T07:37:56.158Z,1006.47
2022-10-25T07:41:03.237Z,1006.50
2022-10-25T07:44:15.479Z,1006.49
2022-10-25T07:47:13.100Z,1006.46
2022-10-25T07:50:20.280Z,1006.51
2022-10-25T07:53:27.873Z,1006.56
2022-10-25T07:56:35.050Z,1006.62
2022-10-25T07:59:42.269Z,1006.62
2022-10-25T08:02:49.814Z,1006.72
2022-10-25T08:05:56.580Z,1006.76
2022-10-25T08:09:14.235Z,1006.79
2022-10-25T08:12:08.931Z,1006.75
2022-10-25T08:15:15.605Z,1006.78
2022-10-25T08:18:23.009Z,1006.73
2022-10-25T08:21:30.164Z,1006.85
2022-10-25T08:24:36.931Z,1006.89
2022-10-25T08:27:44.741Z,1006.92
2022-10-25T08:30:52.937Z,1007.02
2022-10-25T08:33:59.893Z,1006.95
2022-10-25T08:37:07.395Z,1006.91
2022-10-25T08:40:14.691Z,1006.99
2022-10-25T08:43:21.873Z,1007.01
2022-10-25T08:46:29.876Z,1007.04
2022-10-25T08:49:36.974Z,1007.05
2022-10-25T08:52:44.059Z,1007.13
2022-10-25T08:56:11.551Z,1007.09
2022-10-25T08:58:55.948Z,1007.08
2022-10-25T09:02:03.228Z,1007.09
2022-10-25T09:05:10.287Z,1007.11
2022-10-25T09:08:17.787Z,1007.09
2022-10-25T09:11:24.521Z,1007.18
2022-10-25T09:14:31.931Z,1007.24
2022-10-25T09:17:39.286Z,1007.20
2022-10-25T09:20:45.932Z,1007.30
2022-10-25T09:23:53.245Z,1007.25
2022-10-25T09:27:00.316Z,1007.30
2022-10-25T09:30:07.579Z,1007.34
2022-10-25T09:36:22.436Z,1007.41
2022-10-25T09:39:29.468Z,1007.41
2022-10-25T09:42:36.413Z,1007.42
2022-10-25T09:45:43.899Z,1007.53
2022-10-25T09:48:50.854Z,1007.45
2022-10-25T09:51:58.041Z,1007.50
2022-10-25T09:55:05.887Z,1007.45
2022-10-25T09:58:13.287Z,1007.53
2022-10-25T10:01:20.634Z,1007.51
2022-10-25T10:04:28.121Z,1007.56
2022-10-25T10:07:34.851Z,1007.67
2022-10-25T10:10:42.188Z,1007.67
2022-10-25T10:13:49.374Z,1007.62
2022-10-25T10:16:56.011Z,1007.60
2022-10-25T10:20:03.411Z,1007.59
2022-10-25T10:23:10.752Z,1007.61
2022-10-25T10:26:17.444Z,1007.46
2022-10-25T10:29:24.815Z,1007.65
2022-10-25T10:32:31.899Z,1007.61
2022-10-25T10:35:38.724Z,1007.64
2022-10-25T10:38:46.005Z,1007.67
2022-10-25T10:41:53.180Z,1007.61
2022-10-25T10:45:00.314Z,1007.62
2022-10-25T10:48:07.846Z,1007.64
2022-10-25T10:51:38.823Z,1007.64
2022-10-25T10:54:19.109Z,1007.65
2022-10-25T10:57:26.261Z,1007.55
2022-10-25T11:00:33.853Z,1007.63
2022-10-25T11:03:48.842Z,1007.65
2022-10-25T11:06:45.304Z,1007.73
2022-10-25T11:09:52.915Z,1007.80
2022-10-25T11:13:00.279Z,1007.79
2022-10-25T11:16:07.467Z,1007.80
2022-10-25T11:19:14.828Z,1007.86
2022-10-25T11:22:21.593Z,1007.83
2022-10-25T11:25:29.175Z,1007.90
2022-10-25T11:28:36.571Z,1007.91
2022-10-25T11:31:43.222Z,1007.83
2022-10-25T11:34:50.768Z,1007.84
2022-10-25T11:37:57.793Z,1007.89
2022-10-25T11:41:04.735Z,1008.05
2022-10-25T11:44:12.127Z,1008.06
2022-10-25T11:47:19.101Z,1007.97
2022-10-25T11:50:26.135Z,1008.11
2022-10-25T11:53:33.407Z,1008.08
2022-10-25T11:56:40.422Z,1008.03
2022-10-25T11:59:47.302Z,1008.07
2022-10-25T12:02:54.478Z,1008.08
2022-10-25T12:06:01.808Z,1008.07
2022-10-25T12:09:08.903Z,1008.17
2022-10-25T12:12:15.806Z,1008.11
2022-10-25T12:15:23.309Z,1008.10
2022-10-25T12:18:30.403Z,1008.20
2022-10-25T12:21:37.614Z,1008.14
2022-10-25T12:24:44.865Z,1008.17
2022-10-25T12:27:56.428Z,1008.18
2022-10-25T12:30:53.372Z,1008.13
2022-10-25T12:34:00.641Z,1008.19
2022-10-25T12:37:07.861Z,1008.20
2022-10-25T12:40:15.519Z,1008.17
2022-10-25T12:43:22.694Z,1008.27
2022-10-25T12:46:29.974Z,1008.26
2022-10-25T12:49:37.124Z,1008.24
2022-10-25T12:52:43.763Z,1008.29
2022-10-25T12:55:51.317Z,1008.28
2022-10-25T12:58:58.830Z,1008.32
2022-10-25T13:02:05.692Z,1008.27
2022-10-25T13:05:13.041Z,1008.35
2022-10-25T13:08:20.590Z,1008.30
2022-10-25T13:11:27.359Z,1008.27
2022-10-25T13:14:34.899Z,1008.33
2022-10-25T13:17:41.581Z,1008.33
2022-10-25T13:20:48.602Z,1008.22
2022-10-25T13:23:56.310Z,1008.27
2022-10-25T13:27:03.282Z,1008.22
2022-10-25T13:30:10.299Z,1008.27
2022-10-25T13:33:17.778Z,1008.27
2022-10-25T13:36:24.939Z,1008.27
2022-10-25T13:39:32.042Z,1008.30
2022-10-25T13:42:39.342Z,1008.31
2022-10-25T13:45:46.793Z,1008.27
2022-10-25T13:48:53.774Z,1008.33
2022-10-25T13:52:00.732Z,1008.29
2022-10-25T13:55:08.184Z,1008.39
2022-10-25T13:58:14.936Z,1008.45
2022-10-25T14:01:22.489Z,1008.45
2022-10-25T14:04:30.138Z,1008.60
2022-10-25T14:07:37.060Z,1008.50
2022-10-25T14:10:44.234Z,1008.52
2022-10-25T14:13:51.884Z,1008.51
2022-10-25T14:16:58.803Z,1008.50
2022-10-25T14:20:06.393Z,1008.44
2022-10-25T14:23:14.060Z,1008.57
2022-10-25T14:26:20.962Z,1008.58
2022-10-25T14:29:28.606Z,1008.56
2022-10-25T14:32:35.769Z,1008.54
2022-10-25T14:35:42.809Z,1008.52
2022-10-25T14:38:50.217Z,1008.51
2022-10-25T14:41:57.323Z,1008.58
2022-10-25T14:45:04.551Z,1008.48
2022-10-25T14:48:11.671Z,1008.55
2022-10-25T14:51:19.353Z,1008.52
2022-10-25T14:54:26.426Z,1008.60
2022-10-25T14:57:33.668Z,1008.61
2022-10-25T15:00:40.979Z,1008.59
2022-10-25T15:03:48.214Z,1008.56
2022-10-25T15:06:55.456Z,1008.59
2022-10-25T15:10:03.189Z,1008.54
2022-10-25T15:13:09.932Z,1008.48
2022-10-25T15:16:17.191Z,1008.46
2022-10-25T15:19:24.629Z,1008.49
2022-10-25T15:22:31.320Z,1008.54
2022-10-25T15:25:38.895Z,1008.59
2022-10-25T15:28:46.463Z,1008.53
2022-10-25T15:31:53.100Z,1008.61
2022-10-25T15:35:00.348Z,1008.60
2022-10-25T15:38:07.617Z,1008.66
2022-10-25T15:41:14.597Z,1008.74
2022-10-25T15:44:22.031Z,1008.69
2022-10-25T15:47:28.609Z,1008.78
2022-10-25T15:50:36.679Z,1008.73
2022-10-25T15:53:44.442Z,1008.75
2022-10-25T15:56:51.286Z,1008.77
2022-10-25T15:59:58.987Z,1008.82
2022-10-25T16:03:06.422Z,1008.84
2022-10-25T16:06:13.966Z,1008.80
2022-10-25T16:09:21.758Z,1008.91
2022-10-25T16:12:29.343Z,1008.89
2022-10-25T16:15:36.757Z,1008.94
2022-10-25T16:18:44.489Z,1008.93
2022-10-25T16:21:51.788Z,1009.07
2022-10-25T16:24:59.352Z,1009.06
2022-10-25T16:28:06.589Z,1009.08
2022-10-25T16:31:14.300Z,1009.11
2022-10-25T16:34:21.403Z,1009.15
2022-10-25T16:37:28.342Z,1009.10
2022-10-25T16:40:35.747Z,1009.16
2022-10-25T16:43:48.497Z,1009.14
2022-10-25T16:46:46.529Z,1009.16
2022-10-25T16:49:50.265Z,1009.10
2022-10-25T16:52:57.123Z,1009.13
2022-10-25T16:56:04.567Z,1009.21
2022-10-25T16:59:11.789Z,1009.14
2022-10-25T17:02:18.682Z,1009.11
2022-10-25T17:05:25.962Z,1009.27
2022-10-25T17:08:32.791Z,1009.21
2022-10-25T17:11:40.341Z,1009.20
2022-10-25T17:14:47.713Z,1009.24
2022-10-25T17:17:54.293Z,1009.19
2022-10-25T17:21:02.754Z,1009.14
2022-10-25T17:24:10.115Z,1009.22
2022-10-25T17:27:16.785Z,1009.25
2022-10-25T17:30:24.323Z,1009.32
2022-10-25T17:33:31.409Z,1009.25
2022-10-25T17:36:38.544Z,1009.20
2022-10-25T17:39:46.037Z,1009.31
2022-10-25T17:42:52.737Z,1009.27
2022-10-25T17:46:00.615Z,1009.33
2022-10-25T17:49:08.161Z,1009.34
2022-10-25T17:52:14.764Z,1009.30
2022-10-25T17:55:22.309Z,1009.29
2022-10-25T17:58:29.894Z,1009.31
2022-10-25T18:01:36.600Z,1009.40
2022-10-25T18:04:54.059Z,1009.38
2022-10-25T18:07:48.330Z,1009.39
2022-10-25T18:10:55.470Z,1009.39
2022-10-25T18:14:02.726Z,1009.35
2022-10-25T18:17:09.405Z,1009.40
2022-10-25T18:20:16.697Z,1009.43
2022-10-25T18:23:24.169Z,1009.51
2022-10-25T18:26:31.291Z,1009.41
2022-10-25T18:29:38.079Z,1009.41
2022-10-25T18:32:44.811Z,1009.48
2022-10-25T18:35:52.130Z,1009.56
2022-10-25T18:38:59.124Z,1009.47
2022-10-25T18:42:05.933Z,1009.46
2022-10-25T18:45:12.964Z,1009.41
2022-10-25T18:48:19.711Z,1009.48
2022-10-25T18:51:27.904Z,1009.48
2022-10-25T18:54:35.245Z,1009.50
2022-10-25T18:57:42.426Z,1009.44
2022-10-25T19:00:50.102Z,1009.52
2022-10-25T19:03:57.824Z,1009.52
2022-10-25T19:07:04.627Z,1009.50
2022-10-25T19:10:11.942Z,1009.42
2022-10-25T19:13:19.103Z,1009.42
2022-10-25T19:16:25.828Z,1009.41
2022-10-25T19:19:33.812Z,1009.45
2022-10-25T19:22:40.952Z,1009.50
2022-10-25T19:25:48.756Z,1009.45
2022-10-25T19:28:56.347Z,1009.42
2022-10-25T19:32:03.374Z,1009.41
2022-10-25T19:35:11.082Z,1009.51
2022-10-25T19:38:18.267Z,1009.50
2022-10-25T19:41:25.408Z,1009.36
2022-10-25T19:44:32.898Z,1009.38
2022-10-25T19:47:40.050Z,1009.42
2022-10-25T19:50:47.407Z,1009.40
2022-10-25T19:53:54.945Z,1009.39
2022-10-25T19:57:02.170Z,1009.42
2022-10-25T20:00:11.291Z,1009.39
2022-10-25T20:03:09.964Z,1009.42
2022-10-25T20:06:20.057Z,1009.41
2022-10-25T20:09:19.722Z,1009.39
2022-10-25T20:12:27.014Z,1009.43
2022-10-25T20:15:34.648Z,1009.40
2022-10-25T20:18:41.654Z,1009.42
2022-10-25T20:21:48.566Z,1009.46
2022-10-25T20:24:55.907Z,1009.42
2022-10-25T20:28:02.938Z,1009.49
2022-10-25T20:31:10.290Z,1009.48
2022-10-25T20:34:17.894Z,1009.46
2022-10-25T20:37:24.883Z,1009.54
2022-10-25T20:40:32.340Z,1009.56
2022-10-25T20:43:39.102Z,1009.58
2022-10-25T20:46:46.170Z,1009.56
2022-10-25T20:49:53.534Z,1009.60
2022-10-25T20:53:15.670Z,1009.59
2022-10-25T20:56:04.894Z,1009.65
2022-10-25T20:59:12.224Z,1009.65
2022-10-25T21:02:18.985Z,1009.60
2022-10-25T21:05:26.577Z,1009.67
2022-10-25T21:08:33.896Z,1009.71
2022-10-25T21:11:40.895Z,1009.74
2022-10-25T21:14:47.839Z,1009.74
2022-10-25T21:17:54.794Z,1009.73
2022-10-25T21:21:01.661Z,1009.80
2022-10-25T21:24:08.897Z,1009.88
2022-10-25T21:27:15.826Z,1009.91
2022-10-25T21:30:22.743Z,1009.84
2022-10-25T21:33:30.281Z,1009.84
2022-10-25T21:36:37.282Z,1009.87
2022-10-25T21:39:44.275Z,1009.86
2022-10-25T21:42:51.637Z,1009.86
2022-10-25T21:45:58.693Z,1009.78
2022-10-25T21:49:05.610Z,1009.81
2022-10-25T21:52:12.714Z,1009.83
2022-10-25T21:55:19.688Z,1009.86
2022-10-25T21:58:26.626Z,1009.91
2022-10-25T22:01:33.596Z,1009.87
2022-10-25T22:04:40.736Z,1009.84
2022-10-25T22:07:47.898Z,1009.81
2022-10-25T22:10:54.999Z,1009.79
2022-10-25T22:14:02.409Z,1009.76
2022-10-25T22:17:09.339Z,1009.77
2022-10-25T22:20:16.312Z,1009.79
2022-10-25T22:23:23.706Z,1009.73
2022-10-25T22:26:30.344Z,1009.73
2022-10-25T22:29:37.580Z,1009.70
2022-10-25T22:32:44.854Z,1009.64
2022-10-25T22:35:51.665Z,1009.59
2022-10-25T22:38:58.983Z,1009.63
2022-10-25T22:42:06.501Z,1009.69
2022-10-25T22:45:13.126Z,1009.73
2022-10-25T22:48:20.268Z,1009.66
2022-10-25T22:51:27.243Z,1009.66
2022-10-25T22:54:34.007Z,1009.60
2022-10-25T22:57:41.259Z,1009.67
2022-10-25T23:00:48.401Z,1009.67
2022-10-25T23:03:55.381Z,1009.63
2022-10-25T23:07:02.672Z,1009.63
2022-10-25T23:10:09.692Z,1009.64
2022-10-25T23:13:16.651Z,1009.67
2022-10-25T23:16:23.536Z,1009.62
2022-10-25T23:19:30.728Z,1009.62
2022-10-25T23:22:37.640Z,1009.57
2022-10-25T23:25:44.823Z,1009.57
2022-10-25T23:28:51.975Z,1009.64
2022-10-25T23:31:58.973Z,1009.60
2022-10-25T23:35:05.858Z,1009.62
2022-10-25T23:38:13.187Z,1009.58
2022-10-25T23:41:19.824Z,1009.55
2022-10-25T23:44:27.185Z,1009.56
2022-10-25T23:47:34.300Z,1009.56
2022-10-25T23:50:40.957Z,1009.54
2022-10-25T23:53:48.327Z,1009.47
2022-10-25T23:56:55.332Z,1009.56
